sensor_id;sensor_type;location;lat;lon;timestamp;P1;durP1;ratioP1;P2;durP2;ratioP2
54805;SDS011;62866;55.776;37.496;2023-05-28T00:00:36;3.55;;;1.15;;
54805;SDS011;62866;55.776;37.496;2023-05-28T00:03:02;5.45;;;1.27;;
54805;SDS011;62866;55.776;37.496;2023-05-28T00:05:27;2.30;;;1.17;;
54805;SDS011;62866;55.776;37.496;2023-05-28T00:07:53;2.33;;;1.27;;
54805;SDS011;62866;55.776;37.496;2023-05-28T00:10:18;2.17;;;1.10;;
54805;SDS011;62866;55.776;37.496;2023-05-28T00:12:44;1.92;;;1.10;;
54805;SDS011;62866;55.776;37.496;2023-05-28T00:15:10;2.60;;;0.90;;
54805;SDS011;62866;55.776;37.496;2023-05-28T00:17:35;1.80;;;0.98;;
54805;SDS011;62866;55.776;37.496;2023-05-28T00:20:01;2.25;;;0.80;;
54805;SDS011;62866;55.776;37.496;2023-05-28T00:22:27;1.27;;;0.80;;
54805;SDS011;62866;55.776;37.496;2023-05-28T00:24:52;1.17;;;0.90;;
54805;SDS011;62866;55.776;37.496;2023-05-28T00:27:18;2.35;;;1.10;;
54805;SDS011;62866;55.776;37.496;2023-05-28T00:29:43;1.63;;;0.93;;
54805;SDS011;62866;55.776;37.496;2023-05-28T00:32:09;1.88;;;1.05;;
54805;SDS011;62866;55.776;37.496;2023-05-28T00:34:35;1.25;;;0.82;;
54805;SDS011;62866;55.776;37.496;2023-05-28T00:37:00;1.42;;;0.80;;
54805;SDS011;62866;55.776;37.496;2023-05-28T00:39:26;1.20;;;0.90;;
54805;SDS011;62866;55.776;37.496;2023-05-28T00:42:01;1.10;;;0.90;;
54805;SDS011;62866;55.776;37.496;2023-05-28T00:44:28;1.08;;;0.88;;
54805;SDS011;62866;55.776;37.496;2023-05-28T00:46:54;1.52;;;0.85;;
54805;SDS011;62866;55.776;37.496;2023-05-28T00:49:21;1.45;;;0.80;;
54805;SDS011;62866;55.776;37.496;2023-05-28T00:51:47;1.55;;;0.98;;
54805;SDS011;62866;55.776;37.496;2023-05-28T00:54:14;2.53;;;0.95;;
54805;SDS011;62866;55.776;37.496;2023-05-28T00:56:40;1.52;;;0.88;;
54805;SDS011;62866;55.776;37.496;2023-05-28T00:59:06;1.23;;;1.00;;
54805;SDS011;62866;55.776;37.496;2023-05-28T01:01:32;2.45;;;1.00;;
54805;SDS011;62866;55.776;37.496;2023-05-28T01:03:58;1.80;;;1.00;;
54805;SDS011;62866;55.776;37.496;2023-05-28T01:06:25;1.77;;;1.00;;
54805;SDS011;62866;55.776;37.496;2023-05-28T01:08:54;1.27;;;0.95;;
54805;SDS011;62866;55.776;37.496;2023-05-28T01:11:20;1.10;;;1.00;;
54805;SDS011;62866;55.776;37.496;2023-05-28T01:13:46;1.67;;;0.80;;
54805;SDS011;62866;55.776;37.496;2023-05-28T01:16:13;1.25;;;0.88;;
54805;SDS011;62866;55.776;37.496;2023-05-28T01:18:39;1.77;;;1.23;;
54805;SDS011;62866;55.776;37.496;2023-05-28T01:21:06;3.00;;;1.00;;
54805;SDS011;62866;55.776;37.496;2023-05-28T01:23:43;2.55;;;1.20;;
54805;SDS011;62866;55.776;37.496;2023-05-28T01:26:11;1.20;;;0.90;;
54805;SDS011;62866;55.776;37.496;2023-05-28T01:28:38;1.40;;;0.95;;
54805;SDS011;62866;55.776;37.496;2023-05-28T01:31:09;1.08;;;0.80;;
54805;SDS011;62866;55.776;37.496;2023-05-28T01:33:35;0.90;;;0.82;;
54805;SDS011;62866;55.776;37.496;2023-05-28T01:36:03;1.55;;;1.00;;
54805;SDS011;62866;55.776;37.496;2023-05-28T01:38:32;2.15;;;1.00;;
54805;SDS011;62866;55.776;37.496;2023-05-28T01:41:00;0.85;;;0.73;;
54805;SDS011;62866;55.776;37.496;2023-05-28T01:43:27;1.15;;;0.80;;
54805;SDS011;62866;55.776;37.496;2023-05-28T01:45:53;2.33;;;1.00;;
54805;SDS011;62866;55.776;37.496;2023-05-28T01:48:19;1.63;;;1.10;;
54805;SDS011;62866;55.776;37.496;2023-05-28T01:50:46;1.25;;;0.88;;
54805;SDS011;62866;55.776;37.496;2023-05-28T01:53:12;1.55;;;0.80;;
54805;SDS011;62866;55.776;37.496;2023-05-28T01:55:38;1.45;;;1.00;;
54805;SDS011;62866;55.776;37.496;2023-05-28T01:58:03;2.45;;;1.20;;
54805;SDS011;62866;55.776;37.496;2023-05-28T02:00:30;1.92;;;1.00;;
54805;SDS011;62866;55.776;37.496;2023-05-28T02:02:56;1.17;;;0.80;;
54805;SDS011;62866;55.776;37.496;2023-05-28T02:05:22;1.58;;;1.10;;
54805;SDS011;62866;55.776;37.496;2023-05-28T02:07:47;0.98;;;0.80;;
54805;SDS011;62866;55.776;37.496;2023-05-28T02:10:14;2.25;;;1.05;;
54805;SDS011;62866;55.776;37.496;2023-05-28T02:12:39;1.00;;;0.80;;
54805;SDS011;62866;55.776;37.496;2023-05-28T02:15:05;1.70;;;1.00;;
54805;SDS011;62866;55.776;37.496;2023-05-28T02:17:32;1.33;;;0.85;;
54805;SDS011;62866;55.776;37.496;2023-05-28T02:19:57;2.50;;;0.88;;
54805;SDS011;62866;55.776;37.496;2023-05-28T02:22:23;1.80;;;0.70;;
54805;SDS011;62866;55.776;37.496;2023-05-28T02:24:48;1.50;;;0.82;;
54805;SDS011;62866;55.776;37.496;2023-05-28T02:27:14;2.20;;;1.10;;
54805;SDS011;62866;55.776;37.496;2023-05-28T02:29:40;1.35;;;0.70;;
54805;SDS011;62866;55.776;37.496;2023-05-28T02:32:05;0.93;;;0.75;;
54805;SDS011;62866;55.776;37.496;2023-05-28T02:34:31;1.48;;;0.70;;
54805;SDS011;62866;55.776;37.496;2023-05-28T02:36:56;3.45;;;1.15;;
54805;SDS011;62866;55.776;37.496;2023-05-28T02:39:22;1.42;;;0.70;;
54805;SDS011;62866;55.776;37.496;2023-05-28T02:41:48;2.13;;;0.90;;
54805;SDS011;62866;55.776;37.496;2023-05-28T02:44:14;1.60;;;1.10;;
54805;SDS011;62866;55.776;37.496;2023-05-28T02:46:39;1.52;;;0.85;;
54805;SDS011;62866;55.776;37.496;2023-05-28T02:49:05;3.63;;;1.00;;
54805;SDS011;62866;55.776;37.496;2023-05-28T02:51:31;1.33;;;0.70;;
54805;SDS011;62866;55.776;37.496;2023-05-28T02:53:57;4.95;;;1.00;;
54805;SDS011;62866;55.776;37.496;2023-05-28T02:56:22;2.70;;;0.98;;
54805;SDS011;62866;55.776;37.496;2023-05-28T02:58:48;1.23;;;0.82;;
54805;SDS011;62866;55.776;37.496;2023-05-28T03:01:13;2.38;;;0.80;;
54805;SDS011;62866;55.776;37.496;2023-05-28T03:03:40;3.22;;;1.00;;
54805;SDS011;62866;55.776;37.496;2023-05-28T03:06:06;1.90;;;1.08;;
54805;SDS011;62866;55.776;37.496;2023-05-28T03:08:32;1.33;;;0.90;;
54805;SDS011;62866;55.776;37.496;2023-05-28T03:10:58;1.67;;;0.93;;
54805;SDS011;62866;55.776;37.496;2023-05-28T03:13:23;2.28;;;0.70;;
54805;SDS011;62866;55.776;37.496;2023-05-28T03:15:49;3.55;;;0.70;;
54805;SDS011;62866;55.776;37.496;2023-05-28T03:18:15;1.25;;;0.98;;
54805;SDS011;62866;55.776;37.496;2023-05-28T03:20:40;2.45;;;0.88;;
54805;SDS011;62866;55.776;37.496;2023-05-28T03:23:06;1.48;;;0.80;;
54805;SDS011;62866;55.776;37.496;2023-05-28T03:25:32;2.03;;;0.80;;
54805;SDS011;62866;55.776;37.496;2023-05-28T03:27:57;4.45;;;1.00;;
54805;SDS011;62866;55.776;37.496;2023-05-28T03:30:23;3.03;;;1.00;;
54805;SDS011;62866;55.776;37.496;2023-05-28T03:32:49;1.83;;;1.00;;
54805;SDS011;62866;55.776;37.496;2023-05-28T03:35:15;1.27;;;0.80;;
54805;SDS011;62866;55.776;37.496;2023-05-28T03:37:41;1.88;;;0.95;;
54805;SDS011;62866;55.776;37.496;2023-05-28T03:40:06;1.60;;;0.98;;
54805;SDS011;62866;55.776;37.496;2023-05-28T03:42:33;5.53;;;0.98;;
54805;SDS011;62866;55.776;37.496;2023-05-28T03:45:00;1.27;;;0.60;;
54805;SDS011;62866;55.776;37.496;2023-05-28T03:47:26;1.45;;;1.05;;
54805;SDS011;62866;55.776;37.496;2023-05-28T03:49:52;1.60;;;0.90;;
54805;SDS011;62866;55.776;37.496;2023-05-28T03:52:18;0.90;;;0.70;;
54805;SDS011;62866;55.776;37.496;2023-05-28T03:54:43;2.55;;;1.10;;
54805;SDS011;62866;55.776;37.496;2023-05-28T03:57:09;2.55;;;0.73;;
54805;SDS011;62866;55.776;37.496;2023-05-28T03:59:36;2.05;;;0.93;;
54805;SDS011;62866;55.776;37.496;2023-05-28T04:02:01;2.00;;;0.95;;
54805;SDS011;62866;55.776;37.496;2023-05-28T04:04:27;0.82;;;0.80;;
54805;SDS011;62866;55.776;37.496;2023-05-28T04:06:52;2.40;;;0.80;;
54805;SDS011;62866;55.776;37.496;2023-05-28T04:09:18;2.10;;;1.05;;
54805;SDS011;62866;55.776;37.496;2023-05-28T04:11:44;1.20;;;0.80;;
54805;SDS011;62866;55.776;37.496;2023-05-28T04:14:09;1.42;;;0.88;;
54805;SDS011;62866;55.776;37.496;2023-05-28T04:16:35;1.52;;;0.80;;
54805;SDS011;62866;55.776;37.496;2023-05-28T04:19:00;2.55;;;0.93;;
54805;SDS011;62866;55.776;37.496;2023-05-28T04:21:26;1.45;;;0.80;;
54805;SDS011;62866;55.776;37.496;2023-05-28T04:23:54;2.45;;;0.90;;
54805;SDS011;62866;55.776;37.496;2023-05-28T04:26:19;1.73;;;1.00;;
54805;SDS011;62866;55.776;37.496;2023-05-28T04:28:47;2.38;;;0.90;;
54805;SDS011;62866;55.776;37.496;2023-05-28T04:31:13;1.42;;;1.10;;
54805;SDS011;62866;55.776;37.496;2023-05-28T04:33:39;1.42;;;0.80;;
54805;SDS011;62866;55.776;37.496;2023-05-28T04:36:05;2.17;;;0.88;;
54805;SDS011;62866;55.776;37.496;2023-05-28T04:38:33;0.90;;;0.70;;
54805;SDS011;62866;55.776;37.496;2023-05-28T04:40:59;3.72;;;0.70;;
54805;SDS011;62866;55.776;37.496;2023-05-28T04:43:25;1.15;;;0.73;;
54805;SDS011;62866;55.776;37.496;2023-05-28T04:45:52;1.00;;;0.80;;
54805;SDS011;62866;55.776;37.496;2023-05-28T04:48:18;2.15;;;0.88;;
54805;SDS011;62866;55.776;37.496;2023-05-28T04:50:44;1.25;;;1.00;;
54805;SDS011;62866;55.776;37.496;2023-05-28T04:53:10;2.33;;;0.90;;
54805;SDS011;62866;55.776;37.496;2023-05-28T04:55:36;1.35;;;0.80;;
54805;SDS011;62866;55.776;37.496;2023-05-28T04:58:02;2.22;;;0.80;;
54805;SDS011;62866;55.776;37.496;2023-05-28T05:00:27;1.33;;;0.77;;
54805;SDS011;62866;55.776;37.496;2023-05-28T05:02:53;2.13;;;0.80;;
54805;SDS011;62866;55.776;37.496;2023-05-28T05:05:19;1.92;;;1.27;;
54805;SDS011;62866;55.776;37.496;2023-05-28T05:07:46;1.60;;;0.93;;
54805;SDS011;62866;55.776;37.496;2023-05-28T05:10:11;2.67;;;1.17;;
54805;SDS011;62866;55.776;37.496;2023-05-28T05:12:38;1.80;;;1.00;;
54805;SDS011;62866;55.776;37.496;2023-05-28T05:15:04;1.42;;;0.90;;
54805;SDS011;62866;55.776;37.496;2023-05-28T05:17:33;2.75;;;1.45;;
54805;SDS011;62866;55.776;37.496;2023-05-28T05:20:00;1.52;;;0.82;;
54805;SDS011;62866;55.776;37.496;2023-05-28T05:22:26;1.35;;;0.95;;
54805;SDS011;62866;55.776;37.496;2023-05-28T05:24:52;1.80;;;0.88;;
54805;SDS011;62866;55.776;37.496;2023-05-28T05:27:18;1.50;;;1.00;;
54805;SDS011;62866;55.776;37.496;2023-05-28T05:29:43;1.55;;;0.90;;
54805;SDS011;62866;55.776;37.496;2023-05-28T05:32:09;1.17;;;1.00;;
54805;SDS011;62866;55.776;37.496;2023-05-28T05:34:35;1.73;;;1.10;;
54805;SDS011;62866;55.776;37.496;2023-05-28T05:37:01;1.45;;;0.98;;
54805;SDS011;62866;55.776;37.496;2023-05-28T05:39:26;1.75;;;1.08;;
54805;SDS011;62866;55.776;37.496;2023-05-28T05:41:53;2.35;;;0.80;;
54805;SDS011;62866;55.776;37.496;2023-05-28T05:44:19;0.88;;;0.80;;
54805;SDS011;62866;55.776;37.496;2023-05-28T05:46:45;1.25;;;0.90;;
54805;SDS011;62866;55.776;37.496;2023-05-28T05:49:11;2.42;;;0.77;;
54805;SDS011;62866;55.776;37.496;2023-05-28T05:51:36;1.42;;;0.88;;
54805;SDS011;62866;55.776;37.496;2023-05-28T05:54:02;1.92;;;1.20;;
54805;SDS011;62866;55.776;37.496;2023-05-28T05:56:28;1.60;;;0.90;;
54805;SDS011;62866;55.776;37.496;2023-05-28T05:58:54;1.92;;;1.00;;
54805;SDS011;62866;55.776;37.496;2023-05-28T06:01:20;3.10;;;1.10;;
54805;SDS011;62866;55.776;37.496;2023-05-28T06:03:46;0.90;;;0.80;;
54805;SDS011;62866;55.776;37.496;2023-05-28T06:06:12;2.42;;;1.10;;
54805;SDS011;62866;55.776;37.496;2023-05-28T06:08:38;1.42;;;1.10;;
54805;SDS011;62866;55.776;37.496;2023-05-28T06:11:04;5.70;;;1.20;;
54805;SDS011;62866;55.776;37.496;2023-05-28T06:13:30;3.05;;;1.20;;
54805;SDS011;62866;55.776;37.496;2023-05-28T06:15:56;1.10;;;0.95;;
54805;SDS011;62866;55.776;37.496;2023-05-28T06:18:22;1.33;;;1.10;;
54805;SDS011;62866;55.776;37.496;2023-05-28T06:20:49;1.35;;;0.90;;
54805;SDS011;62866;55.776;37.496;2023-05-28T06:23:15;1.90;;;1.27;;
54805;SDS011;62866;55.776;37.496;2023-05-28T06:25:41;1.63;;;0.90;;
54805;SDS011;62866;55.776;37.496;2023-05-28T06:28:09;1.45;;;1.00;;
54805;SDS011;62866;55.776;37.496;2023-05-28T06:30:35;1.35;;;0.90;;
54805;SDS011;62866;55.776;37.496;2023-05-28T06:33:00;1.60;;;1.08;;
54805;SDS011;62866;55.776;37.496;2023-05-28T06:35:26;1.83;;;1.00;;
54805;SDS011;62866;55.776;37.496;2023-05-28T06:37:52;1.00;;;0.90;;
54805;SDS011;62866;55.776;37.496;2023-05-28T06:40:17;1.27;;;1.00;;
54805;SDS011;62866;55.776;37.496;2023-05-28T06:42:43;2.10;;;0.90;;
54805;SDS011;62866;55.776;37.496;2023-05-28T06:45:09;1.52;;;1.00;;
54805;SDS011;62866;55.776;37.496;2023-05-28T06:47:35;0.95;;;0.70;;
54805;SDS011;62866;55.776;37.496;2023-05-28T06:50:01;1.25;;;1.02;;
54805;SDS011;62866;55.776;37.496;2023-05-28T06:52:27;1.85;;;1.25;;
54805;SDS011;62866;55.776;37.496;2023-05-28T06:54:52;2.00;;;1.30;;
54805;SDS011;62866;55.776;37.496;2023-05-28T06:57:18;10.15;;;1.30;;
54805;SDS011;62866;55.776;37.496;2023-05-28T06:59:43;2.03;;;1.10;;
54805;SDS011;62866;55.776;37.496;2023-05-28T07:02:09;2.28;;;1.10;;
54805;SDS011;62866;55.776;37.496;2023-05-28T07:04:34;3.10;;;1.08;;
54805;SDS011;62866;55.776;37.496;2023-05-28T07:07:00;1.58;;;1.10;;
54805;SDS011;62866;55.776;37.496;2023-05-28T07:09:25;1.35;;;0.98;;
54805;SDS011;62866;55.776;37.496;2023-05-28T07:11:51;2.00;;;1.20;;
54805;SDS011;62866;55.776;37.496;2023-05-28T07:14:17;3.85;;;1.20;;
54805;SDS011;62866;55.776;37.496;2023-05-28T07:16:42;5.07;;;2.05;;
54805;SDS011;62866;55.776;37.496;2023-05-28T07:19:08;1.80;;;0.88;;
54805;SDS011;62866;55.776;37.496;2023-05-28T07:21:33;1.13;;;1.00;;
54805;SDS011;62866;55.776;37.496;2023-05-28T07:24:00;2.92;;;1.23;;
54805;SDS011;62866;55.776;37.496;2023-05-28T07:26:25;2.40;;;1.20;;
54805;SDS011;62866;55.776;37.496;2023-05-28T07:28:51;3.35;;;1.20;;
54805;SDS011;62866;55.776;37.496;2023-05-28T07:31:17;2.03;;;1.08;;
54805;SDS011;62866;55.776;37.496;2023-05-28T07:33:42;2.13;;;1.02;;
54805;SDS011;62866;55.776;37.496;2023-05-28T07:36:08;16.95;;;1.63;;
54805;SDS011;62866;55.776;37.496;2023-05-28T07:38:33;3.88;;;1.30;;
54805;SDS011;62866;55.776;37.496;2023-05-28T07:40:59;2.42;;;1.30;;
54805;SDS011;62866;55.776;37.496;2023-05-28T07:43:25;1.35;;;1.10;;
54805;SDS011;62866;55.776;37.496;2023-05-28T07:45:50;2.95;;;1.40;;
54805;SDS011;62866;55.776;37.496;2023-05-28T07:48:16;4.28;;;1.30;;
54805;SDS011;62866;55.776;37.496;2023-05-28T07:50:41;8.15;;;1.55;;
54805;SDS011;62866;55.776;37.496;2023-05-28T07:53:07;3.55;;;1.50;;
54805;SDS011;62866;55.776;37.496;2023-05-28T07:55:33;4.65;;;1.38;;
54805;SDS011;62866;55.776;37.496;2023-05-28T07:57:59;2.00;;;1.27;;
54805;SDS011;62866;55.776;37.496;2023-05-28T08:00:25;4.65;;;1.50;;
54805;SDS011;62866;55.776;37.496;2023-05-28T08:02:51;2.05;;;0.98;;
54805;SDS011;62866;55.776;37.496;2023-05-28T08:05:17;3.13;;;1.15;;
54805;SDS011;62866;55.776;37.496;2023-05-28T08:07:43;2.88;;;1.20;;
54805;SDS011;62866;55.776;37.496;2023-05-28T08:10:10;5.35;;;1.75;;
54805;SDS011;62866;55.776;37.496;2023-05-28T08:12:36;2.95;;;1.58;;
54805;SDS011;62866;55.776;37.496;2023-05-28T08:15:02;5.50;;;1.83;;
54805;SDS011;62866;55.776;37.496;2023-05-28T08:17:31;2.80;;;1.45;;
54805;SDS011;62866;55.776;37.496;2023-05-28T08:19:57;3.78;;;1.63;;
54805;SDS011;62866;55.776;37.496;2023-05-28T08:22:23;3.72;;;1.70;;
54805;SDS011;62866;55.776;37.496;2023-05-28T08:24:48;3.13;;;1.65;;
54805;SDS011;62866;55.776;37.496;2023-05-28T08:27:14;4.68;;;1.65;;
54805;SDS011;62866;55.776;37.496;2023-05-28T08:29:39;2.45;;;1.30;;
54805;SDS011;62866;55.776;37.496;2023-05-28T08:32:05;3.63;;;1.65;;
54805;SDS011;62866;55.776;37.496;2023-05-28T08:34:31;3.58;;;1.90;;
54805;SDS011;62866;55.776;37.496;2023-05-28T08:36:59;3.97;;;1.92;;
54805;SDS011;62866;55.776;37.496;2023-05-28T08:39:24;5.03;;;2.22;;
54805;SDS011;62866;55.776;37.496;2023-05-28T08:41:52;4.45;;;1.70;;
54805;SDS011;62866;55.776;37.496;2023-05-28T08:44:18;2.13;;;1.55;;
54805;SDS011;62866;55.776;37.496;2023-05-28T08:46:44;2.30;;;1.20;;
54805;SDS011;62866;55.776;37.496;2023-05-28T08:49:10;6.03;;;2.25;;
54805;SDS011;62866;55.776;37.496;2023-05-28T08:51:37;4.82;;;1.60;;
54805;SDS011;62866;55.776;37.496;2023-05-28T08:54:06;3.03;;;2.03;;
54805;SDS011;62866;55.776;37.496;2023-05-28T08:56:33;3.35;;;1.60;;
54805;SDS011;62866;55.776;37.496;2023-05-28T08:58:59;3.15;;;1.90;;
54805;SDS011;62866;55.776;37.496;2023-05-28T09:01:26;3.10;;;1.77;;
54805;SDS011;62866;55.776;37.496;2023-05-28T09:03:52;3.90;;;2.28;;
54805;SDS011;62866;55.776;37.496;2023-05-28T09:06:18;2.90;;;1.90;;
54805;SDS011;62866;55.776;37.496;2023-05-28T09:08:45;3.08;;;1.92;;
54805;SDS011;62866;55.776;37.496;2023-05-28T09:11:13;4.47;;;1.95;;
54805;SDS011;62866;55.776;37.496;2023-05-28T09:13:45;2.50;;;1.52;;
54805;SDS011;62866;55.776;37.496;2023-05-28T09:16:21;1.70;;;1.40;;
54805;SDS011;62866;55.776;37.496;2023-05-28T09:18:50;2.80;;;1.73;;
54805;SDS011;62866;55.776;37.496;2023-05-28T09:21:19;2.58;;;1.70;;
54805;SDS011;62866;55.776;37.496;2023-05-28T09:23:46;4.22;;;1.98;;
54805;SDS011;62866;55.776;37.496;2023-05-28T09:26:15;3.58;;;2.35;;
54805;SDS011;62866;55.776;37.496;2023-05-28T09:28:44;3.70;;;1.95;;
54805;SDS011;62866;55.776;37.496;2023-05-28T09:31:10;4.15;;;1.90;;
54805;SDS011;62866;55.776;37.496;2023-05-28T09:33:44;6.50;;;2.20;;
54805;SDS011;62866;55.776;37.496;2023-05-28T09:36:10;4.57;;;2.28;;
54805;SDS011;62866;55.776;37.496;2023-05-28T09:38:42;3.03;;;2.05;;
54805;SDS011;62866;55.776;37.496;2023-05-28T09:43:44;2.08;;;1.50;;
54805;SDS011;62866;55.776;37.496;2023-05-28T09:46:11;2.92;;;1.50;;
54805;SDS011;62866;55.776;37.496;2023-05-28T09:48:36;2.08;;;1.50;;
54805;SDS011;62866;55.776;37.496;2023-05-28T09:51:04;2.78;;;1.70;;
54805;SDS011;62866;55.776;37.496;2023-05-28T09:53:35;3.42;;;1.23;;
54805;SDS011;62866;55.776;37.496;2023-05-28T09:56:04;2.10;;;1.35;;
54805;SDS011;62866;55.776;37.496;2023-05-28T09:58:32;2.10;;;1.45;;
54805;SDS011;62866;55.776;37.496;2023-05-28T10:01:03;3.25;;;1.63;;
54805;SDS011;62866;55.776;37.496;2023-05-28T10:03:36;3.80;;;1.60;;
54805;SDS011;62866;55.776;37.496;2023-05-28T10:06:10;3.30;;;1.33;;
54805;SDS011;62866;55.776;37.496;2023-05-28T10:08:39;1.92;;;1.33;;
54805;SDS011;62866;55.776;37.496;2023-05-28T10:11:08;1.52;;;1.15;;
54805;SDS011;62866;55.776;37.496;2023-05-28T10:13:37;1.98;;;1.30;;
54805;SDS011;62866;55.776;37.496;2023-05-28T10:16:03;2.20;;;1.20;;
54805;SDS011;62866;55.776;37.496;2023-05-28T10:18:29;2.55;;;1.73;;
54805;SDS011;62866;55.776;37.496;2023-05-28T10:20:55;2.30;;;1.63;;
54805;SDS011;62866;55.776;37.496;2023-05-28T10:23:22;2.75;;;1.60;;
54805;SDS011;62866;55.776;37.496;2023-05-28T10:25:49;2.97;;;1.30;;
54805;SDS011;62866;55.776;37.496;2023-05-28T10:28:15;1.75;;;1.15;;
54805;SDS011;62866;55.776;37.496;2023-05-28T10:30:41;3.28;;;1.60;;
54805;SDS011;62866;55.776;37.496;2023-05-28T10:33:11;1.85;;;1.05;;
54805;SDS011;62866;55.776;37.496;2023-05-28T10:36:40;3.95;;;1.25;;
54805;SDS011;62866;55.776;37.496;2023-05-28T10:41:21;2.72;;;1.30;;
54805;SDS011;62866;55.776;37.496;2023-05-28T10:43:47;3.17;;;1.45;;
54805;SDS011;62866;55.776;37.496;2023-05-28T10:46:15;3.13;;;1.42;;
54805;SDS011;62866;55.776;37.496;2023-05-28T10:57:07;2.20;;;1.80;;
54805;SDS011;62866;55.776;37.496;2023-05-28T11:04:43;3.53;;;1.55;;
54805;SDS011;62866;55.776;37.496;2023-05-28T11:07:08;2.05;;;1.50;;
54805;SDS011;62866;55.776;37.496;2023-05-28T11:09:34;1.55;;;1.10;;
54805;SDS011;62866;55.776;37.496;2023-05-28T11:12:00;2.28;;;1.30;;
54805;SDS011;62866;55.776;37.496;2023-05-28T11:14:45;3.58;;;1.17;;
54805;SDS011;62866;55.776;37.496;2023-05-28T11:17:11;1.23;;;1.02;;
54805;SDS011;62866;55.776;37.496;2023-05-28T11:22:09;3.47;;;1.30;;
54805;SDS011;62866;55.776;37.496;2023-05-28T11:27:29;1.83;;;0.90;;
54805;SDS011;62866;55.776;37.496;2023-05-28T11:29:57;1.42;;;1.00;;
54805;SDS011;62866;55.776;37.496;2023-05-28T11:32:25;2.40;;;1.40;;
54805;SDS011;62866;55.776;37.496;2023-05-28T11:34:53;1.67;;;1.02;;
54805;SDS011;62866;55.776;37.496;2023-05-28T11:37:23;3.13;;;1.60;;
54805;SDS011;62866;55.776;37.496;2023-05-28T11:39:54;2.30;;;1.23;;
54805;SDS011;62866;55.776;37.496;2023-05-28T11:42:21;3.13;;;1.20;;
54805;SDS011;62866;55.776;37.496;2023-05-28T11:44:48;1.65;;;0.88;;
54805;SDS011;62866;55.776;37.496;2023-05-28T11:47:16;2.15;;;0.90;;
54805;SDS011;62866;55.776;37.496;2023-05-28T11:49:48;3.67;;;1.27;;
54805;SDS011;62866;55.776;37.496;2023-05-28T11:52:24;1.63;;;1.10;;
54805;SDS011;62866;55.776;37.496;2023-05-28T11:55:00;2.45;;;1.20;;
54805;SDS011;62866;55.776;37.496;2023-05-28T11:57:31;1.55;;;1.20;;
54805;SDS011;62866;55.776;37.496;2023-05-28T12:00:13;2.58;;;1.13;;
54805;SDS011;62866;55.776;37.496;2023-05-28T12:02:44;1.70;;;1.00;;
54805;SDS011;62866;55.776;37.496;2023-05-28T12:05:11;1.25;;;1.00;;
54805;SDS011;62866;55.776;37.496;2023-05-28T12:07:48;2.13;;;1.00;;
54805;SDS011;62866;55.776;37.496;2023-05-28T12:10:30;1.70;;;0.90;;
54805;SDS011;62866;55.776;37.496;2023-05-28T12:12:56;1.40;;;1.00;;
54805;SDS011;62866;55.776;37.496;2023-05-28T12:15:28;1.58;;;1.10;;
54805;SDS011;62866;55.776;37.496;2023-05-28T12:18:11;1.30;;;1.00;;
54805;SDS011;62866;55.776;37.496;2023-05-28T12:23:23;0.60;;;0.60;;
54805;SDS011;62866;55.776;37.496;2023-05-28T12:26:08;1.08;;;0.90;;
54805;SDS011;62866;55.776;37.496;2023-05-28T12:28:42;2.28;;;0.88;;
54805;SDS011;62866;55.776;37.496;2023-05-28T12:31:10;2.00;;;0.90;;
54805;SDS011;62866;55.776;37.496;2023-05-28T12:33:54;2.83;;;1.17;;
54805;SDS011;62866;55.776;37.496;2023-05-28T12:36:22;1.15;;;0.88;;
54805;SDS011;62866;55.776;37.496;2023-05-28T12:38:51;3.15;;;1.00;;
54805;SDS011;62866;55.776;37.496;2023-05-28T12:41:23;1.92;;;0.80;;
54805;SDS011;62866;55.776;37.496;2023-05-28T12:44:12;2.80;;;1.45;;
54805;SDS011;62866;55.776;37.496;2023-05-28T12:46:50;1.75;;;1.13;;
54805;SDS011;62866;55.776;37.496;2023-05-28T12:49:48;3.42;;;1.02;;
54805;SDS011;62866;55.776;37.496;2023-05-28T12:52:25;1.80;;;0.93;;
54805;SDS011;62866;55.776;37.496;2023-05-28T12:54:54;0.88;;;0.73;;
54805;SDS011;62866;55.776;37.496;2023-05-28T12:57:29;1.00;;;0.70;;
54805;SDS011;62866;55.776;37.496;2023-05-28T13:06:03;1.40;;;0.85;;
54805;SDS011;62866;55.776;37.496;2023-05-28T13:08:50;0.85;;;0.80;;
54805;SDS011;62866;55.776;37.496;2023-05-28T13:11:15;3.20;;;1.10;;
54805;SDS011;62866;55.776;37.496;2023-05-28T13:13:45;1.77;;;0.80;;
54805;SDS011;62866;55.776;37.496;2023-05-28T13:16:25;1.27;;;0.95;;
54805;SDS011;62866;55.776;37.496;2023-05-28T13:18:51;4.47;;;1.10;;
54805;SDS011;62866;55.776;37.496;2023-05-28T13:21:17;1.35;;;0.68;;
54805;SDS011;62866;55.776;37.496;2023-05-28T13:23:45;1.13;;;0.80;;
54805;SDS011;62866;55.776;37.496;2023-05-28T13:26:14;0.70;;;0.70;;
54805;SDS011;62866;55.776;37.496;2023-05-28T13:28:40;4.13;;;1.13;;
54805;SDS011;62866;55.776;37.496;2023-05-28T13:31:23;0.98;;;0.70;;
54805;SDS011;62866;55.776;37.496;2023-05-28T13:36:23;2.05;;;0.80;;
54805;SDS011;62866;55.776;37.496;2023-05-28T13:39:11;0.82;;;0.73;;
54805;SDS011;62866;55.776;37.496;2023-05-28T13:41:39;2.00;;;0.70;;
54805;SDS011;62866;55.776;37.496;2023-05-28T13:44:05;1.42;;;0.70;;
54805;SDS011;62866;55.776;37.496;2023-05-28T13:46:31;1.75;;;0.65;;
54805;SDS011;62866;55.776;37.496;2023-05-28T13:48:57;2.45;;;0.90;;
54805;SDS011;62866;55.776;37.496;2023-05-28T13:51:22;1.98;;;0.75;;
54805;SDS011;62866;55.776;37.496;2023-05-28T13:53:48;0.70;;;0.70;;
54805;SDS011;62866;55.776;37.496;2023-05-28T13:56:14;0.85;;;0.82;;
54805;SDS011;62866;55.776;37.496;2023-05-28T13:58:40;0.60;;;0.43;;
54805;SDS011;62866;55.776;37.496;2023-05-28T14:01:06;1.25;;;0.82;;
54805;SDS011;62866;55.776;37.496;2023-05-28T14:03:32;0.70;;;0.70;;
54805;SDS011;62866;55.776;37.496;2023-05-28T14:05:58;1.90;;;1.02;;
54805;SDS011;62866;55.776;37.496;2023-05-28T14:08:24;2.00;;;0.80;;
54805;SDS011;62866;55.776;37.496;2023-05-28T14:10:50;1.38;;;0.80;;
54805;SDS011;62866;55.776;37.496;2023-05-28T14:13:15;2.95;;;1.13;;
54805;SDS011;62866;55.776;37.496;2023-05-28T14:15:41;2.10;;;0.90;;
54805;SDS011;62866;55.776;37.496;2023-05-28T14:18:06;1.95;;;1.15;;
54805;SDS011;62866;55.776;37.496;2023-05-28T14:20:32;1.77;;;0.93;;
54805;SDS011;62866;55.776;37.496;2023-05-28T14:23:02;2.20;;;0.90;;
54805;SDS011;62866;55.776;37.496;2023-05-28T14:25:28;1.27;;;0.88;;
54805;SDS011;62866;55.776;37.496;2023-05-28T14:27:54;1.92;;;1.17;;
54805;SDS011;62866;55.776;37.496;2023-05-28T14:30:20;1.35;;;1.00;;
54805;SDS011;62866;55.776;37.496;2023-05-28T14:32:45;1.65;;;1.20;;
54805;SDS011;62866;55.776;37.496;2023-05-28T14:35:11;2.65;;;1.00;;
54805;SDS011;62866;55.776;37.496;2023-05-28T14:37:36;1.25;;;0.95;;
54805;SDS011;62866;55.776;37.496;2023-05-28T14:40:02;2.17;;;1.17;;
54805;SDS011;62866;55.776;37.496;2023-05-28T14:42:29;2.38;;;1.20;;
54805;SDS011;62866;55.776;37.496;2023-05-28T14:44:55;2.78;;;1.00;;
54805;SDS011;62866;55.776;37.496;2023-05-28T14:47:21;1.98;;;1.30;;
54805;SDS011;62866;55.776;37.496;2023-05-28T14:49:46;4.15;;;1.05;;
54805;SDS011;62866;55.776;37.496;2023-05-28T14:52:28;2.25;;;1.50;;
54805;SDS011;62866;55.776;37.496;2023-05-28T14:54:55;3.38;;;1.40;;
54805;SDS011;62866;55.776;37.496;2023-05-28T14:57:22;4.72;;;1.48;;
54805;SDS011;62866;55.776;37.496;2023-05-28T14:59:49;2.30;;;1.42;;
54805;SDS011;62866;55.776;37.496;2023-05-28T15:02:15;1.40;;;1.08;;
54805;SDS011;62866;55.776;37.496;2023-05-28T15:04:41;1.83;;;1.17;;
54805;SDS011;62866;55.776;37.496;2023-05-28T15:07:08;1.55;;;0.98;;
54805;SDS011;62866;55.776;37.496;2023-05-28T15:09:35;2.00;;;0.90;;